Time;durP1;ratioP1;P1;durP2;ratioP2;P2;SDS_P1;SDS_P2;PMS_P1;PMS_P2;Temp;Humidity;BMP_temperature;BMP_pressure;BME280_temperature;BME280_humidity;BME280_pressure;Samples;Min_cycle;Max_cycle;Signal;HPM_P1;HPM_P2
2021/05/27 00:00:23;;;;;;;3.95;3.65;;;28.80;56.00;;;;;;5123423;28;20031;-40
2021/05/27 00:02:49;;;;;;;3.97;3.67;;;28.70;56.00;;;;;;5121597;28;20051;-40
2021/05/27 00:05:15;;;;;;;4.18;3.88;;;28.70;56.00;;;;;;5123312;28;20119;-40
2021/05/27 00:07:42;;;;;;;4.18;3.83;;;28.70;56.00;;;;;;5123183;28;20028;-40
2021/05/27 00:10:08;;;;;;;4.28;3.78;;;28.70;56.00;;;;;;5123219;28;20107;-40
2021/05/27 00:12:34;;;;;;;3.70;3.40;;;28.70;56.50;;;;;;5122697;28;20036;-40
2021/05/27 00:15:01;;;;;;;4.10;3.70;;;28.70;56.00;;;;;;5123213;28;20024;-42
2021/05/27 00:17:27;;;;;;;3.88;3.50;;;28.60;55.80;;;;;;5122993;28;20034;-40
2021/05/27 00:19:53;;;;;;;3.63;3.33;;;28.70;55.90;;;;;;5123176;28;20028;-42
2021/05/27 00:22:20;;;;;;;4.00;3.70;;;28.60;55.90;;;;;;5123068;28;20049;-43
2021/05/27 00:24:46;;;;;;;4.10;3.80;;;28.60;55.80;;;;;;5123100;28;20054;-40
2021/05/27 00:27:12;;;;;;;3.60;3.30;;;28.60;55.90;;;;;;5122769;28;20394;-41
2021/05/27 00:29:39;;;;;;;3.97;3.67;;;28.60;55.90;;;;;;5123095;28;20020;-40
2021/05/27 00:32:05;;;;;;;4.25;3.85;;;28.60;55.90;;;;;;5122751;28;20035;-40
2021/05/27 00:34:31;;;;;;;3.90;3.60;;;28.50;55.90;;;;;;5123088;28;20031;-40
2021/05/27 00:36:58;;;;;;;3.83;3.53;;;28.50;56.00;;;;;;5122740;28;20057;-44
2021/05/27 00:39:24;;;;;;;3.70;3.40;;;28.50;56.00;;;;;;5123099;28;20047;-40
2021/05/27 00:41:50;;;;;;;4.20;3.80;;;28.50;55.90;;;;;;5122958;28;20031;-40
2021/05/27 00:44:20;;;;;;;4.03;3.70;;;28.50;56.00;;;;;;5122996;28;20095;-40
2021/05/27 00:46:46;;;;;;;3.75;3.45;;;28.40;55.90;;;;;;5122684;28;20051;-40
2021/05/27 00:49:12;;;;;;;4.03;3.63;;;28.40;56.00;;;;;;5123003;28;20030;-40
2021/05/27 00:51:39;;;;;;;4.10;3.80;;;28.40;56.00;;;;;;5121358;28;20051;-40
2021/05/27 00:54:05;;;;;;;3.87;3.57;;;28.40;55.90;;;;;;5122545;28;20340;-40
2021/05/27 00:56:31;;;;;;;3.83;3.53;;;28.40;56.00;;;;;;5122453;28;20110;-44
2021/05/27 00:58:58;;;;;;;4.17;3.83;;;28.40;55.90;;;;;;5122931;28;20039;-41
2021/05/27 01:01:24;;;;;;;3.97;3.57;;;28.40;56.00;;;;;;5125194;28;20099;-41
2021/05/27 01:03:50;;;;;;;3.90;3.60;;;28.40;56.00;;;;;;5126425;28;20047;-40
2021/05/27 01:06:16;;;;;;;3.87;3.57;;;28.40;56.00;;;;;;5126347;28;20035;-40
2021/05/27 01:08:42;;;;;;;3.97;3.58;;;28.30;55.80;;;;;;5126185;28;20028;-40
2021/05/27 01:11:08;;;;;;;4.00;3.70;;;28.30;55.80;;;;;;5126370;28;20044;-42
2021/05/27 01:13:35;;;;;;;3.73;3.43;;;28.30;56.00;;;;;;5126148;28;20487;-41
2021/05/27 01:16:01;;;;;;;3.93;3.63;;;28.30;56.00;;;;;;5126392;28;20115;-40
2021/05/27 01:18:27;;;;;;;3.92;3.63;;;28.30;56.00;;;;;;5126015;28;20280;-42
2021/05/27 01:20:56;;;;;;;3.58;3.28;;;28.20;55.80;;;;;;5126043;28;20024;-44
2021/05/27 01:23:23;;;;;;;3.92;3.63;;;28.20;55.90;;;;;;5126127;28;20059;-40
2021/05/27 01:25:51;;;;;;;3.95;3.55;;;28.20;55.90;;;;;;5126030;28;20039;-42
2021/05/27 01:28:18;;;;;;;3.63;3.33;;;28.20;56.00;;;;;;5125567;28;20027;-40
2021/05/27 01:30:44;;;;;;;3.80;3.50;;;28.20;56.20;;;;;;5125997;28;20019;-42
2021/05/27 01:33:12;;;;;;;3.55;3.25;;;28.20;56.00;;;;;;5125940;28;20284;-41
2021/05/27 01:35:38;;;;;;;3.78;3.40;;;28.10;56.00;;;;;;5125867;28;20083;-44
2021/05/27 01:38:20;;;;;;;3.80;3.50;;;28.10;56.10;;;;;;5125826;27;20027;-40
2021/05/27 01:40:46;;;;;;;4.05;3.75;;;28.10;56.10;;;;;;5125548;28;20028;-41
2021/05/27 01:43:12;;;;;;;4.00;3.70;;;28.10;56.10;;;;;;5125579;28;20028;-41
2021/05/27 01:45:38;;;;;;;4.23;3.93;;;28.00;56.00;;;;;;5125882;28;20977;-40
2021/05/27 01:48:05;;;;;;;3.87;3.53;;;28.00;56.00;;;;;;5125404;28;20268;-41
2021/05/27 01:50:31;;;;;;;3.83;3.53;;;28.00;56.10;;;;;;5125642;28;20256;-40
2021/05/27 01:53:03;;;;;;;3.63;3.33;;;28.00;56.10;;;;;;5125309;27;20040;-41
2021/05/27 01:55:29;;;;;;;4.13;3.72;;;28.00;56.10;;;;;;5124725;28;20027;-41
2021/05/27 01:57:56;;;;;;;4.05;3.75;;;28.00;56.10;;;;;;5124938;28;20023;-40
2021/05/27 02:00:23;;;;;;;4.10;3.80;;;27.90;56.00;;;;;;5125388;28;20143;-40
2021/05/27 02:02:49;;;;;;;3.92;3.53;;;27.90;56.00;;;;;;5125261;28;20059;-40
2021/05/27 02:05:15;;;;;;;3.97;3.67;;;27.90;55.90;;;;;;5125354;28;20030;-43
2021/05/27 02:07:42;;;;;;;4.00;3.70;;;27.90;56.00;;;;;;5124865;28;20267;-40
2021/05/27 02:10:09;;;;;;;4.43;4.03;;;27.90;56.00;;;;;;5125263;28;20022;-42
2021/05/27 02:12:35;;;;;;;3.80;3.50;;;27.90;56.00;;;;;;5124945;28;20042;-39
2021/05/27 02:15:01;;;;;;;3.90;3.60;;;27.90;56.00;;;;;;5123822;28;20023;-40
2021/05/27 02:17:28;;;;;;;4.13;3.72;;;27.80;56.10;;;;;;5125172;28;20495;-41
2021/05/27 02:19:54;;;;;;;4.22;3.53;;;27.80;56.20;;;;;;5124933;28;20052;-41
2021/05/27 02:22:20;;;;;;;3.97;3.65;;;27.80;56.10;;;;;;5124619;27;20051;-43
2021/05/27 02:24:47;;;;;;;4.15;3.80;;;27.80;56.20;;;;;;5124737;28;20035;-42
2021/05/27 02:27:13;;;;;;;4.32;3.83;;;27.80;56.10;;;;;;5124181;27;20033;-42
2021/05/27 02:29:39;;;;;;;4.22;3.83;;;27.70;56.20;;;;;;5124784;28;20034;-40
2021/05/27 02:32:06;;;;;;;4.43;4.00;;;27.70;56.10;;;;;;5124753;27;20460;-41
2021/05/27 02:34:32;;;;;;;4.10;3.70;;;27.70;56.10;;;;;;5124870;28;20024;-40
2021/05/27 02:36:58;;;;;;;4.45;4.07;;;27.70;56.10;;;;;;5124599;28;20040;-40
2021/05/27 02:39:24;;;;;;;4.23;3.83;;;27.70;56.10;;;;;;5124289;28;20023;-41
2021/05/27 02:41:50;;;;;;;4.05;3.65;;;27.60;56.10;;;;;;5124520;28;20102;-40
2021/05/27 02:44:16;;;;;;;4.17;3.87;;;27.60;56.20;;;;;;5124810;28;20119;-40
2021/05/27 02:46:43;;;;;;;4.07;3.77;;;27.60;56.30;;;;;;5124536;27;20051;-41
2021/05/27 02:49:09;;;;;;;5.53;3.83;;;27.60;56.30;;;;;;5124361;28;20055;-40
2021/05/27 02:51:35;;;;;;;4.22;3.92;;;27.60;56.10;;;;;;5124279;28;20083;-42
2021/05/27 02:54:01;;;;;;;4.68;4.28;;;27.60;56.20;;;;;;5123799;28;20027;-42
2021/05/27 02:56:27;;;;;;;4.67;3.80;;;27.50;56.20;;;;;;5124423;28;20512;-43
2021/05/27 02:58:54;;;;;;;4.77;4.37;;;27.50;56.10;;;;;;5124222;28;20062;-40
2021/05/27 03:01:20;;;;;;;5.13;4.37;;;27.50;56.10;;;;;;5124413;28;20035;-41
2021/05/27 03:03:46;;;;;;;4.53;4.13;;;27.40;56.10;;;;;;5124172;28;20052;-40
2021/05/27 03:06:13;;;;;;;4.53;4.13;;;27.50;56.20;;;;;;5124011;28;20069;-41
2021/05/27 03:08:42;;;;;;;;;;;27.40;56.00;;;;;;5124363;28;20028;-41
2021/05/27 03:11:09;;;;;;;4.38;3.97;;;27.40;56.10;;;;;;5124082;28;19908;-40
2021/05/27 03:13:35;;;;;;;5.65;4.10;;;27.40;56.10;;;;;;5124017;28;20039;-40
2021/05/27 03:16:02;;;;;;;5.22;4.60;;;27.30;56.10;;;;;;5122923;28;20065;-40
2021/05/27 03:18:30;;;;;;;4.72;4.32;;;27.30;56.00;;;;;;5122324;28;20039;-40
2021/05/27 03:20:57;;;;;;;7.18;4.53;;;27.30;56.10;;;;;;5123927;28;20368;-41
2021/05/27 03:23:23;;;;;;;4.70;4.30;;;27.30;56.10;;;;;;5123182;28;20438;-40
2021/05/27 03:25:49;;;;;;;4.65;4.25;;;27.30;55.90;;;;;;5123840;28;20096;-40
2021/05/27 03:28:15;;;;;;;5.10;4.60;;;27.30;56.00;;;;;;5124021;28;20032;-40
2021/05/27 03:30:42;;;;;;;4.18;3.80;;;27.20;55.80;;;;;;5123446;28;20020;-40
2021/05/27 03:33:08;;;;;;;4.80;4.40;;;27.30;55.80;;;;;;5123741;28;20065;-40
2021/05/27 03:35:35;;;;;;;4.85;4.45;;;27.20;55.80;;;;;;5123389;28;20252;-42
2021/05/27 03:38:01;;;;;;;4.68;4.15;;;27.20;55.80;;;;;;5122251;28;20038;-40
2021/05/27 03:40:27;;;;;;;4.57;4.18;;;27.20;55.80;;;;;;5123636;28;20031;-40
2021/05/27 03:42:54;;;;;;;4.67;4.17;;;27.20;55.90;;;;;;5123574;28;20023;-40
2021/05/27 03:45:22;;;;;;;4.40;4.00;;;27.20;55.80;;;;;;5123637;28;20028;-40
2021/05/27 03:47:48;;;;;;;4.65;4.25;;;27.10;55.80;;;;;;5122318;28;20027;-40
2021/05/27 03:50:16;;;;;;;4.93;4.30;;;27.10;55.80;;;;;;5123486;28;20051;-40
2021/05/27 03:52:42;;;;;;;4.82;4.32;;;27.10;55.90;;;;;;5122832;28;20043;-40
2021/05/27 03:55:10;;;;;;;5.20;4.70;;;27.10;55.90;;;;;;5123617;28;20076;-40
2021/05/27 03:57:36;;;;;;;5.43;4.40;;;27.10;56.10;;;;;;5123609;28;20314;-40
2021/05/27 04:02:50;;;;;;;4.78;4.30;;;27.00;55.90;;;;;;5123350;28;20308;-43
2021/05/27 04:08:01;;;;;;;4.75;4.35;;;27.00;56.00;;;;;;5123418;28;20042;-40
2021/05/27 04:10:27;;;;;;;5.53;4.23;;;26.90;55.80;;;;;;5121878;28;20111;-42
2021/05/27 04:12:53;;;;;;;4.60;4.20;;;26.90;55.90;;;;;;5123170;28;20032;-40
2021/05/27 04:15:23;;;;;;;4.73;4.33;;;26.90;55.80;;;;;;5123531;28;20049;-40
2021/05/27 04:17:59;;;;;;;4.80;4.40;;;26.90;55.80;;;;;;5123357;28;20077;-41
2021/05/27 04:20:49;;;;;;;5.00;4.50;;;26.80;55.70;;;;;;5122985;28;20028;-41
2021/05/27 04:23:32;;;;;;;5.10;4.60;;;26.80;55.80;;;;;;5117140;28;20042;-40
2021/05/27 04:26:00;;;;;;;4.82;4.32;;;26.80;55.70;;;;;;5123222;28;20563;-40
2021/05/27 04:28:26;;;;;;;4.47;4.07;;;26.80;55.80;;;;;;5122863;28;20035;-40
2021/05/27 04:31:11;;;;;;;4.43;4.03;;;26.70;55.80;;;;;;5123031;28;20027;-40
2021/05/27 04:33:40;;;;;;;4.68;4.28;;;26.70;55.80;;;;;;5123148;28;20070;-40
2021/05/27 04:36:07;;;;;;;4.72;4.28;;;26.70;55.80;;;;;;5126990;28;20100;-40
2021/05/27 04:38:33;;;;;;;4.22;3.92;;;26.70;55.70;;;;;;5127134;28;20035;-41
2021/05/27 04:40:59;;;;;;;5.20;4.70;;;26.70;55.70;;;;;;5126965;28;20034;-41
2021/05/27 04:43:25;;;;;;;4.97;4.55;;;26.60;55.60;;;;;;5127029;28;20016;-41
2021/05/27 04:45:52;;;;;;;5.20;4.70;;;26.60;55.70;;;;;;5127176;28;20590;-41
2021/05/27 04:48:18;;;;;;;4.68;4.28;;;26.60;55.80;;;;;;5127081;28;20058;-41
2021/05/27 04:50:46;;;;;;;5.07;4.57;;;26.60;55.80;;;;;;5126661;28;20027;-40
2021/05/27 04:53:12;;;;;;;4.78;4.32;;;26.50;55.80;;;;;;5126439;28;20055;-40
2021/05/27 04:55:38;;;;;;;5.00;4.50;;;26.50;55.80;;;;;;5126591;28;20027;-40
2021/05/27 04:58:05;;;;;;;4.70;4.27;;;26.50;55.80;;;;;;5126624;28;20038;-40
2021/05/27 05:00:31;;;;;;;5.00;4.60;;;26.50;56.00;;;;;;5126570;28;20027;-40
2021/05/27 05:02:58;;;;;;;4.60;4.20;;;26.40;55.80;;;;;;5126642;28;20052;-40
2021/05/27 05:05:26;;;;;;;5.63;4.90;;;26.40;56.00;;;;;;5126618;28;20027;-40
2021/05/27 05:07:52;;;;;;;5.03;4.55;;;26.40;56.00;;;;;;5125128;28;20028;-42
2021/05/27 05:10:21;;;;;;;4.97;4.47;;;26.40;56.00;;;;;;5126321;28;20042;-40
2021/05/27 05:12:49;;;;;;;5.10;4.70;;;26.40;55.90;;;;;;5126360;28;20036;-41
2021/05/27 05:15:17;;;;;;;4.80;4.32;;;26.40;55.80;;;;;;5126655;28;20023;-40
2021/05/27 05:17:46;;;;;;;4.82;4.43;;;26.40;55.80;;;;;;5126270;28;20036;-40
2021/05/27 05:20:13;;;;;;;4.85;4.35;;;26.30;56.00;;;;;;5126207;28;20057;-40
2021/05/27 05:22:39;;;;;;;4.57;4.18;;;26.30;55.80;;;;;;5126108;28;20124;-40
2021/05/27 05:25:06;;;;;;;5.07;4.57;;;26.30;55.90;;;;;;5124943;28;20114;-40
2021/05/27 05:27:32;;;;;;;5.75;4.35;;;26.20;55.90;;;;;;5126084;28;20047;-40
2021/05/27 05:29:58;;;;;;;7.15;4.85;;;26.20;55.90;;;;;;5126197;28;20027;-40
2021/05/27 05:32:24;;;;;;;4.83;4.43;;;26.20;55.90;;;;;;5124185;28;20042;-40
2021/05/27 05:34:51;;;;;;;5.25;4.75;;;26.20;56.00;;;;;;5126290;28;20015;-41
2021/05/27 05:37:18;;;;;;;4.95;4.55;;;26.20;55.90;;;;;;5126045;28;20035;-41
2021/05/27 05:39:44;;;;;;;5.40;4.90;;;26.20;55.90;;;;;;5126069;28;20023;-40
2021/05/27 05:42:10;;;;;;;5.57;4.95;;;26.10;55.90;;;;;;5125562;28;20030;-40
2021/05/27 05:44:36;;;;;;;4.87;4.47;;;26.10;56.00;;;;;;5124689;28;20051;-40
2021/05/27 05:47:02;;;;;;;5.18;4.68;;;26.10;56.00;;;;;;5125550;28;20031;-41
2021/05/27 05:49:29;;;;;;;4.40;4.00;;;26.10;56.00;;;;;;5125898;28;20019;-40
2021/05/27 05:51:55;;;;;;;5.03;4.55;;;26.10;56.10;;;;;;5125345;28;20114;-40
2021/05/27 05:54:21;;;;;;;5.25;4.75;;;26.10;56.00;;;;;;5125203;28;20031;-40
2021/05/27 05:56:47;;;;;;;5.33;4.73;;;26.00;56.00;;;;;;5125646;28;20020;-40
2021/05/27 05:59:13;;;;;;;5.00;4.57;;;26.00;56.10;;;;;;5125914;28;20394;-41
2021/05/27 06:01:39;;;;;;;5.07;4.57;;;26.00;56.10;;;;;;5125281;28;20047;-40
2021/05/27 06:04:06;;;;;;;5.40;4.90;;;25.90;56.10;;;;;;5125738;28;20131;-40
2021/05/27 06:06:32;;;;;;;4.82;4.43;;;25.90;56.10;;;;;;5125416;28;20022;-40
2021/05/27 06:08:58;;;;;;;5.30;4.80;;;25.90;56.20;;;;;;5125278;28;20038;-41
2021/05/27 06:11:24;;;;;;;5.20;4.70;;;25.90;56.70;;;;;;5125631;28;20023;-40
2021/05/27 06:13:50;;;;;;;5.07;4.57;;;25.90;56.20;;;;;;5125236;28;20081;-40
2021/05/27 06:16:17;;;;;;;5.40;4.90;;;25.80;56.10;;;;;;5125182;28;20310;-40
2021/05/27 06:18:43;;;;;;;5.05;4.57;;;25.80;56.20;;;;;;5124954;28;20019;-40
2021/05/27 06:21:09;;;;;;;5.20;4.70;;;25.80;56.20;;;;;;5124870;28;20073;-40
2021/05/27 06:23:36;;;;;;;6.03;5.28;;;25.80;56.30;;;;;;5125275;28;20019;-39
2021/05/27 06:26:02;;;;;;;5.20;4.70;;;25.80;56.20;;;;;;5125210;28;20057;-40
2021/05/27 06:28:28;;;;;;;4.97;4.47;;;25.80;56.20;;;;;;5124644;28;20035;-43
2021/05/27 06:30:56;;;;;;;5.40;4.90;;;25.80;56.30;;;;;;5125248;28;20106;-40
2021/05/27 06:33:23;;;;;;;5.60;5.10;;;25.70;56.20;;;;;;5124853;27;20043;-41
2021/05/27 06:35:49;;;;;;;5.60;5.10;;;25.70;56.20;;;;;;5124961;28;20020;-40
2021/05/27 06:38:15;;;;;;;5.27;4.77;;;25.70;56.30;;;;;;5124558;28;20040;-40
2021/05/27 06:40:41;;;;;;;5.17;4.67;;;25.70;56.20;;;;;;5124883;28;20023;-41
2021/05/27 06:43:08;;;;;;;5.85;5.25;;;25.60;56.30;;;;;;5124593;28;20020;-40
2021/05/27 06:45:34;;;;;;;5.70;5.13;;;25.60;56.30;;;;;;5124881;28;20398;-40
2021/05/27 06:48:00;;;;;;;5.70;4.37;;;25.60;56.30;;;;;;5124608;27;20084;-39
2021/05/27 06:50:34;;;;;;;5.13;4.72;;;25.60;56.40;;;;;;5124865;28;20260;-40
2021/05/27 06:53:04;;;;;;;5.40;4.90;;;25.60;56.40;;;;;;5124261;28;20080;-41
2021/05/27 06:55:31;;;;;;;5.20;4.70;;;25.50;56.30;;;;;;5124343;28;20054;-40
2021/05/27 06:57:57;;;;;;;4.97;4.47;;;25.50;56.40;;;;;;5123855;28;20096;-41
2021/05/27 07:00:23;;;;;;;5.00;4.60;;;25.50;56.40;;;;;;5124119;28;20059;-40
2021/05/27 07:02:51;;;;;;;5.30;4.80;;;25.50;56.40;;;;;;5124189;28;20062;-40
2021/05/27 07:05:18;;;;;;;5.22;4.72;;;25.50;56.40;;;;;;5124355;28;20044;-41
2021/05/27 07:07:44;;;;;;;5.10;4.65;;;25.50;56.50;;;;;;5124295;28;20395;-41
2021/05/27 07:10:12;;;;;;;5.70;5.10;;;25.40;56.50;;;;;;5124178;28;20054;-41
2021/05/27 07:12:38;;;;;;;5.10;4.70;;;25.40;56.50;;;;;;5122469;28;20035;-40
2021/05/27 07:15:05;;;;;;;5.30;4.80;;;25.40;56.50;;;;;;5124415;28;20032;-40
2021/05/27 07:17:31;;;;;;;5.38;4.88;;;25.40;56.60;;;;;;5124127;28;20460;-39
2021/05/27 07:19:58;;;;;;;5.57;5.05;;;25.40;56.60;;;;;;5124102;28;20031;-40
2021/05/27 07:22:24;;;;;;;5.57;5.07;;;25.40;56.60;;;;;;5123862;28;20098;-40
2021/05/27 07:24:50;;;;;;;4.85;4.43;;;25.30;56.60;;;;;;5123951;28;20169;-40
2021/05/27 07:27:16;;;;;;;5.80;5.30;;;25.30;56.60;;;;;;5124134;28;20023;-40
2021/05/27 07:29:43;;;;;;;5.85;5.35;;;25.30;56.60;;;;;;5123936;28;20043;-40
2021/05/27 07:32:09;;;;;;;5.30;4.85;;;25.30;56.70;;;;;;5123831;28;20043;-41
2021/05/27 07:34:37;;;;;;;6.43;5.00;;;25.30;56.60;;;;;;5123587;28;20855;-42
2021/05/27 07:37:04;;;;;;;5.47;4.93;;;25.20;56.60;;;;;;5123655;28;20032;-40
2021/05/27 07:39:30;;;;;;;5.55;4.93;;;25.20;56.60;;;;;;5123724;28;20585;-40
2021/05/27 07:41:56;;;;;;;5.97;5.40;;;25.20;56.60;;;;;;5123451;28;20032;-40
2021/05/27 07:44:22;;;;;;;5.05;4.63;;;25.20;56.70;;;;;;5123778;28;20024;-41
2021/05/27 07:46:49;;;;;;;5.72;5.07;;;25.20;56.70;;;;;;5123832;28;20037;-40
2021/05/27 07:49:15;;;;;;;6.03;5.43;;;25.20;56.70;;;;;;5123529;28;20048;-40
2021/05/27 07:51:41;;;;;;;5.70;5.10;;;25.10;56.70;;;;;;5123447;28;20049;-41
2021/05/27 07:54:07;;;;;;;6.05;5.47;;;25.10;56.70;;;;;;5123280;28;20039;-41
2021/05/27 07:56:33;;;;;;;4.97;4.55;;;25.10;56.80;;;;;;5123716;28;20059;-40
2021/05/27 07:59:02;;;;;;;5.47;4.97;;;25.00;56.80;;;;;;5123327;28;20035;-40
2021/05/27 08:01:29;;;;;;;5.60;5.10;;;25.10;57.40;;;;;;5123573;28;20024;-40
2021/05/27 08:03:55;;;;;;;5.63;5.13;;;25.00;56.80;;;;;;5123373;28;20048;-40
2021/05/27 08:06:21;;;;;;;5.50;5.00;;;25.00;56.80;;;;;;5123501;28;20027;-40
2021/05/27 08:08:47;;;;;;;5.82;5.22;;;25.00;56.90;;;;;;5125068;28;20092;-40
2021/05/27 08:11:13;;;;;;;5.55;4.95;;;25.00;56.90;;;;;;5127506;28;20027;-40
2021/05/27 08:13:39;;;;;;;5.20;4.70;;;25.00;56.90;;;;;;5127381;28;20039;-40
2021/05/27 08:16:06;;;;;;;5.65;5.15;;;24.90;56.90;;;;;;5127643;28;20023;-40
2021/05/27 08:18:32;;;;;;;6.32;5.60;;;24.90;56.90;;;;;;5127574;28;20101;-40
2021/05/27 08:20:58;;;;;;;6.32;5.72;;;24.90;57.00;;;;;;5127408;28;20062;-40
2021/05/27 08:23:24;;;;;;;7.07;5.22;;;24.90;57.00;;;;;;5127090;28;20034;-40
2021/05/27 08:25:51;;;;;;;6.18;5.25;;;24.80;57.00;;;;;;5127490;28;20034;-40
2021/05/27 08:28:17;;;;;;;6.00;5.35;;;24.90;57.10;;;;;;5126062;28;20024;-41
2021/05/27 08:30:43;;;;;;;5.60;5.10;;;24.80;57.00;;;;;;5126964;28;20116;-43
2021/05/27 08:33:09;;;;;;;5.88;5.32;;;24.80;57.00;;;;;;5127383;28;20050;-41
2021/05/27 08:35:35;;;;;;;5.05;4.65;;;24.80;57.10;;;;;;5127363;28;20464;-40
2021/05/27 08:38:01;;;;;;;5.47;4.97;;;24.80;57.10;;;;;;5127167;28;20388;-40
2021/05/27 08:40:28;;;;;;;5.65;5.15;;;24.80;57.10;;;;;;5127080;28;20095;-42
2021/05/27 08:42:56;;;;;;;6.07;5.47;;;24.80;57.20;;;;;;5127250;27;20024;-40
2021/05/27 08:45:22;;;;;;;6.00;5.50;;;24.70;57.10;;;;;;5125772;28;20030;-43
2021/05/27 08:47:48;;;;;;;5.03;4.63;;;24.70;57.10;;;;;;5125565;28;20066;-39
2021/05/27 08:50:14;;;;;;;5.82;5.28;;;24.70;57.10;;;;;;5126692;28;20031;-41
2021/05/27 08:52:41;;;;;;;5.45;4.95;;;24.70;57.20;;;;;;5125147;28;20035;-41
2021/05/27 08:55:08;;;;;;;5.85;4.97;;;24.70;57.20;;;;;;5127071;28;20410;-40
2021/05/27 08:57:34;;;;;;;5.40;4.95;;;24.60;57.30;;;;;;5126755;28;20031;-42
2021/05/27 09:00:00;;;;;;;5.95;5.35;;;24.60;57.30;;;;;;5126466;28;20072;-41
2021/05/27 09:02:26;;;;;;;5.85;5.30;;;24.60;57.30;;;;;;5125234;28;20042;-41
2021/05/27 09:04:52;;;;;;;6.75;5.43;;;24.60;57.30;;;;;;5126685;28;20027;-40
2021/05/27 09:07:19;;;;;;;6.03;5.32;;;24.60;57.30;;;;;;5125615;28;20700;-41
2021/05/27 09:09:55;;;;;;;5.50;5.00;;;24.60;57.40;;;;;;5125360;28;20046;-40
2021/05/27 09:12:34;;;;;;;5.68;5.10;;;24.50;57.30;;;;;;5126429;28;20027;-41
2021/05/27 09:15:06;;;;;;;5.80;5.30;;;24.50;57.30;;;;;;5126627;28;20030;-40
2021/05/27 09:17:49;;;;;;;5.82;5.22;;;24.50;57.40;;;;;;5126486;28;20040;-40
2021/05/27 09:20:17;;;;;;;5.68;5.18;;;24.50;57.40;;;;;;5124156;28;20034;-43
2021/05/27 09:22:43;;;;;;;5.60;5.10;;;24.50;57.50;;;;;;5126240;28;20027;-43
2021/05/27 09:25:23;;;;;;;6.23;5.63;;;24.50;57.40;;;;;;5125986;28;20095;-45
2021/05/27 09:27:50;;;;;;;6.15;5.55;;;24.50;57.50;;;;;;5126164;28;20260;-40
2021/05/27 09:30:16;;;;;;;5.97;4.95;;;24.40;57.50;;;;;;5125996;28;20023;-42
2021/05/27 09:32:46;;;;;;;6.07;5.47;;;24.40;57.50;;;;;;5126137;28;20475;-40
2021/05/27 09:35:14;;;;;;;5.97;5.38;;;24.40;57.50;;;;;;5125876;28;20036;-40
2021/05/27 09:37:45;;;;;;;;;;;24.40;57.50;;;;;;5126617;28;20084;-41
2021/05/27 09:40:12;;;;;;;5.88;5.28;;;24.40;57.60;;;;;;5126217;28;19910;-40
2021/05/27 09:42:50;;;;;;;5.65;5.15;;;24.30;57.50;;;;;;5125744;28;20027;-43
2021/05/27 09:45:17;;;;;;;5.95;5.35;;;24.30;57.60;;;;;;5126052;28;20085;-41
2021/05/27 09:47:43;;;;;;;5.45;4.95;;;24.30;57.60;;;;;;5125796;28;20032;-41
2021/05/27 09:50:10;;;;;;;5.75;5.25;;;24.30;57.60;;;;;;5125921;28;20069;-40
2021/05/27 09:52:46;;;;;;;5.55;5.05;;;24.30;57.70;;;;;;5125297;28;20094;-40
2021/05/27 09:55:16;;;;;;;5.97;5.35;;;24.20;57.70;;;;;;5123656;28;20051;-44
2021/05/27 09:57:43;;;;;;;5.95;5.45;;;24.20;57.70;;;;;;5125806;28;20126;-40
2021/05/27 10:00:22;;;;;;;6.18;5.53;;;24.20;57.70;;;;;;5125792;28;20184;-40
2021/05/27 10:02:48;;;;;;;6.53;5.45;;;24.20;57.70;;;;;;5125006;28;20046;-41
2021/05/27 10:05:14;;;;;;;5.78;5.22;;;24.20;57.80;;;;;;5125692;28;20031;-40
2021/05/27 10:07:46;;;;;;;5.78;5.28;;;24.10;57.70;;;;;;5125510;28;20037;-41
2021/05/27 10:10:16;;;;;;;5.80;5.28;;;24.20;57.80;;;;;;5124082;28;20028;-40
2021/05/27 10:12:44;;;;;;;5.88;5.28;;;24.20;57.80;;;;;;5123515;28;20043;-40
2021/05/27 10:15:13;;;;;;;5.75;5.25;;;24.10;57.80;;;;;;5125374;28;20083;-41
2021/05/27 10:17:40;;;;;;;5.93;5.32;;;24.10;57.80;;;;;;5124167;28;20035;-41
2021/05/27 10:20:09;;;;;;;5.65;5.15;;;24.10;57.80;;;;;;5124318;28;20056;-41
2021/05/27 10:22:35;;;;;;;7.10;5.78;;;24.10;57.80;;;;;;5123569;28;20057;-43
2021/05/27 10:25:09;;;;;;;6.00;5.50;;;24.10;57.80;;;;;;5125108;28;20031;-42
2021/05/27 10:27:36;;;;;;;6.30;5.70;;;24.00;57.80;;;;;;5124659;28;20027;-41
2021/05/27 10:30:05;;;;;;;;;;;24.00;57.90;;;;;;5125555;28;20031;-42
2021/05/27 10:32:31;;;;;;;5.93;5.32;;;24.00;57.90;;;;;;5123306;28;19915;-40
2021/05/27 10:34:57;;;;;;;5.68;5.18;;;24.00;57.90;;;;;;5124863;28;20035;-41
2021/05/27 10:37:37;;;;;;;5.85;5.30;;;24.00;58.00;;;;;;5124842;28;20020;-41
2021/05/27 10:40:04;;;;;;;6.57;5.85;;;24.00;58.00;;;;;;5124912;28;20031;-40
2021/05/27 10:42:55;;;;;;;5.82;5.28;;;23.90;57.90;;;;;;5124518;28;20023;-40
2021/05/27 10:45:37;;;;;;;5.50;5.00;;;23.90;58.00;;;;;;5124766;28;20032;-42
2021/05/27 10:48:15;;;;;;;6.07;5.47;;;23.90;58.00;;;;;;5125042;28;20069;-40
2021/05/27 10:51:08;;;;;;;5.80;5.20;;;23.90;58.00;;;;;;5124963;28;20546;-40
2021/05/27 10:53:36;;;;;;;5.93;5.32;;;23.90;58.00;;;;;;5124079;28;20043;-40
2021/05/27 10:56:03;;;;;;;5.85;5.35;;;23.90;58.20;;;;;;5123962;28;20019;-40
2021/05/27 10:58:48;;;;;;;6.72;5.70;;;23.80;58.10;;;;;;5124377;28;20099;-40
2021/05/27 11:01:18;;;;;;;5.82;5.32;;;23.80;58.20;;;;;;5124535;28;20016;-40
2021/05/27 11:03:50;;;;;;;5.63;5.10;;;23.80;58.20;;;;;;5124212;28;20055;-40
2021/05/27 11:06:38;;;;;;;6.05;5.50;;;23.80;58.20;;;;;;5124455;28;20058;-40
2021/05/27 11:09:11;;;;;;;5.80;5.30;;;23.80;58.20;;;;;;5122989;28;20023;-40
2021/05/27 11:11:42;;;;;;;5.82;5.28;;;23.80;58.20;;;;;;5124146;28;20019;-40
2021/05/27 11:14:17;;;;;;;5.82;5.32;;;23.70;58.20;;;;;;5124188;28;20035;-40
2021/05/27 11:17:05;;;;;;;6.20;5.60;;;23.70;58.20;;;;;;5124348;28;20026;-40
2021/05/27 11:20:03;;;;;;;5.80;5.25;;;23.70;58.30;;;;;;5124228;28;20027;-39
2021/05/27 11:22:30;;;;;;;6.07;5.50;;;23.70;58.20;;;;;;5123836;28;20110;-40
2021/05/27 11:25:19;;;;;;;6.05;5.45;;;23.70;58.20;;;;;;5124151;28;20065;-42
2021/05/27 11:27:55;;;;;;;5.85;5.35;;;23.70;58.30;;;;;;5117045;27;20032;-40
2021/05/27 11:30:42;;;;;;;6.07;5.57;;;23.70;58.20;;;;;;5124086;28;20042;-42
2021/05/27 11:33:32;;;;;;;5.35;4.85;;;23.70;58.30;;;;;;5123759;28;20137;-40
2021/05/27 11:36:09;;;;;;;5.60;5.10;;;23.70;58.30;;;;;;5124060;28;20642;-41
2021/05/27 11:38:36;;;;;;;5.90;5.35;;;23.60;58.30;;;;;;5123826;28;20086;-41
2021/05/27 11:41:05;;;;;;;;;;;23.60;58.30;;;;;;5124327;28;20020;-40
2021/05/27 11:43:39;;;;;;;5.78;5.28;;;23.60;58.30;;;;;;5123216;27;20290;-40
2021/05/27 11:46:28;;;;;;;7.20;5.55;;;23.60;58.30;;;;;;5124044;28;20030;-41
2021/05/27 11:48:57;;;;;;;5.15;4.57;;;23.60;58.40;;;;;;5123988;28;20078;-40
2021/05/27 11:51:34;;;;;;;6.10;5.50;;;23.60;58.40;;;;;;5122627;28;20710;-40
2021/05/27 11:54:05;;;;;;;5.87;5.37;;;23.60;58.90;;;;;;5122700;28;20046;-40
2021/05/27 11:56:41;;;;;;;6.25;5.65;;;23.60;58.40;;;;;;5123568;28;20027;-40
2021/05/27 11:59:19;;;;;;;5.68;5.18;;;23.60;58.50;;;;;;5123639;28;20034;-40
2021/05/27 12:01:45;;;;;;;;;;;23.50;58.30;;;;;;5123994;28;20028;-40
2021/05/27 12:04:18;;;;;;;5.47;4.97;;;23.60;58.40;;;;;;5123380;28;19942;-41
2021/05/27 12:06:48;;;;;;;5.63;5.10;;;23.50;58.40;;;;;;5123698;28;20087;-42
2021/05/27 12:09:31;;;;;;;6.13;5.50;;;23.50;58.40;;;;;;5123475;28;20027;-40
2021/05/27 12:12:08;;;;;;;6.07;5.47;;;23.50;58.40;;;;;;5123539;28;20031;-41
2021/05/27 12:14:45;;;;;;;6.00;5.30;;;23.50;58.40;;;;;;5123366;28;20028;-40
2021/05/27 12:17:19;;;;;;;5.88;5.38;;;23.50;58.50;;;;;;5123641;28;20057;-43
2021/05/27 12:19:49;;;;;;;5.55;5.05;;;23.50;58.50;;;;;;5122159;28;20540;-42
2021/05/27 12:22:15;;;;;;;5.70;5.18;;;23.50;58.50;;;;;;5123244;28;20897;-41
2021/05/27 12:24:42;;;;;;;5.88;5.38;;;23.50;58.50;;;;;;5122957;28;20028;-42
2021/05/27 12:27:08;;;;;;;5.43;4.93;;;23.50;58.60;;;;;;5123479;28;20055;-42
2021/05/27 12:29:34;;;;;;;5.80;5.30;;;23.50;58.60;;;;;;5123523;28;20041;-40
2021/05/27 12:32:03;;;;;;;6.15;5.55;;;23.50;58.50;;;;;;5123295;28;20050;-41
2021/05/27 12:34:29;;;;;;;6.13;5.53;;;23.50;58.60;;;;;;5121866;28;20036;-40
2021/05/27 12:36:59;;;;;;;6.05;5.45;;;23.50;58.50;;;;;;5122175;28;20079;-41
2021/05/27 12:39:28;;;;;;;5.97;5.38;;;23.50;58.60;;;;;;5123410;28;20031;-40
2021/05/27 12:41:54;;;;;;;5.30;4.80;;;23.50;58.60;;;;;;5123468;28;20096;-40
2021/05/27 12:44:49;;;;;;;5.18;4.78;;;23.50;58.50;;;;;;5123015;28;20024;-41
2021/05/27 12:47:21;;;;;;;5.78;5.13;;;23.50;58.60;;;;;;5123076;28;20032;-43
2021/05/27 12:49:48;;;;;;;6.07;5.50;;;23.40;58.50;;;;;;5123367;28;20024;-41
2021/05/27 12:52:43;;;;;;;5.93;5.43;;;23.40;58.70;;;;;;5123031;28;20053;-43
2021/05/27 12:55:10;;;;;;;6.10;5.50;;;23.40;58.50;;;;;;5120919;28;20035;-41
2021/05/27 12:58:03;;;;;;;5.80;5.30;;;23.40;58.50;;;;;;5127170;28;20024;-42
2021/05/27 13:00:43;;;;;;;6.10;5.50;;;23.40;58.70;;;;;;5127048;28;20096;-40